Oak Hill, WV

7:57 AM EDT on June 03, 2015 (GMT -0400)
F.I.T. - Oyler Ave. | | Change Station
CLOSE
Current Station
Personal Weather Station
Location: Oak Hill, WV
Elevation: 1988 ft
Nearby Weather Stations

Elev 1988 ft 37.99 °N, 81.15 °W | Updated 6 seconds ago

Overcast
Overcast
57.7 °F
Feels Like 57.7 °F
N
1.0
Wind Variable Wind from NW
Gusts 3.0 mph

Today
High -- | Low -- °F
--% Chance of Precip.
Yesterday
High -- | Low -- °F
Precip. -- in
6:03 AM 8:42 PM
Full, 99% visible
Pressure 30.05 in
Visibility 10.0 miles
Clouds Overcast 900 ft
Dew Point 57 °F
Humidity 99%
Rainfall 0.00 in
Snow Depth Not available.
UV 0 out of 12
Pollen 2.40 out of 12
Air Quality Not available.
Flu Activity Sporadic
METAR KBKW 031151Z AUTO 10004KT 10SM OVC009 16/13 A3009 RMK AO2 SLP174 T01560133 10156 20139 51011

More Conditions Fewer Conditions

Pressure 30.05 in
Visibility 10.0 miles
Clouds Overcast 900 ft
Dew Point 57 °F
Humidity 99%
Rainfall 0.00 in
Snow Depth Not available.
UV 0 out of 12
Pollen 2.40 out of 12
Air Quality Not available.
Flu Activity Sporadic
METAR KBKW 031151Z AUTO 10004KT 10SM OVC009 16/13 A3009 RMK AO2 SLP174 T01560133 10156 20139 51011

More Conditions Fewer Conditions

10-Day Weather Forecast

×

Almanac

Astronomy

Jun. 03, 2015 Rise Set
Actual Time
Civil Twilight
Nautical Twilight
Astronomical Twilight
Moon
Length of Visible Light
Length of Day
Tomorrow will be .
, % of the Moon is Illuminated

Today's Extremes

State Highs State Lows

Community

WunderPhotos

Upload Photos

1,826,205 photos uploaded!

WunderBlogs® & News

Nearby

Air Quality

  Air Quality AQ Index Pollutant
Not available.

Snow Depth

Station Depth Elevation

Earthquake Activity

City Distance Mag. Time & Date
Minimum magnitude displayed is 2.5.

Coastal Water Temperatures

Place Temperature

Stations

Nearby Weather Stations

Station Location Temp. Windchill Dew Point Humidity Wind Precip. Elev Updated Type